Terminal Aerodrome Forecast
Issued by NWS

Home | Current Version | Previous Version | Text Only | Print | Product List | Glossary On
Versions: 1 2 3 4 5 6 7 8 9 10 11 12 13 14 15 16 17 18 19 20
421
FTUS46 KPDT 201721
TAFRDM
TAF
KRDM 201721Z 2018/2118 VRB04KT P6SM SCT100 OVC200
     FM202100 29008KT P6SM BKN100
     FM210400 17005KT P6SM SCT100 BKN200
     FM211600 19012G20KT P6SM VCSH BKN050=

USA.gov is the U.S. government's official web portal to all federal, state and local government web resources and services.